Time;durP1;ratioP1;P1;durP2;ratioP2;P2;SDS_P1;SDS_P2;PMS_P1;PMS_P2;Temp;Humidity;BMP_temperature;BMP_pressure;BME280_temperature;BME280_humidity;BME280_pressure;Samples;Min_cycle;Max_cycle;Signal;HPM_P1;HPM_P2
2021/07/08 00:00:10;;;;;;;17.20;13.93;;;;;;;20.79;65.35;97531.72;1806469;77;25434;-82
2021/07/08 00:02:40;;;;;;;18.77;14.53;;;;;;;20.71;65.23;97530.89;1818371;77;25613;-82
2021/07/08 00:05:12;;;;;;;16.00;13.43;;;;;;;20.62;65.42;97528.42;1813483;77;26317;-81
2021/07/08 00:07:39;;;;;;;16.30;12.85;;;;;;;20.63;65.48;97530.63;1821514;78;27231;-82
2021/07/08 00:10:12;;;;;;;14.75;13.22;;;;;;;20.60;65.41;97529.24;1821150;78;26214;-81
2021/07/08 00:12:39;;;;;;;;;;;;;;;20.56;65.41;97532.24;1824169;77;26141;-81
2021/07/08 00:15:17;;;;;;;18.23;13.75;;;;;;;20.51;65.82;97534.17;1826782;77;26538;-81
2021/07/08 00:17:46;;;;;;;17.48;13.80;;;;;;;20.42;65.63;97534.68;1821401;78;25612;-81
2021/07/08 00:20:18;;;;;;;15.83;13.55;;;;;;;20.35;65.66;97535.50;1821374;78;28125;-82
2021/07/08 00:22:46;;;;;;;16.10;13.43;;;;;;;20.34;65.73;97532.45;1821298;77;25974;-82
2021/07/08 00:25:18;;;;;;;16.82;13.65;;;;;;;20.32;65.76;97540.11;1817072;77;25637;-81
2021/07/08 00:27:46;;;;;;;14.93;13.35;;;;;;;20.30;65.82;97538.73;1815478;77;25711;-81
2021/07/08 00:30:14;;;;;;;16.02;14.15;;;;;;;20.27;65.81;97541.49;1821366;77;25531;-81
2021/07/08 00:32:42;;;;;;;17.00;14.18;;;;;;;20.23;65.81;97540.38;1821182;77;28112;-81
2021/07/08 00:35:11;;;;;;;15.18;13.00;;;;;;;20.17;65.94;97540.06;1821368;78;26056;-82
2021/07/08 00:37:40;;;;;;;15.15;13.65;;;;;;;20.10;66.01;97534.03;1806249;77;25614;-82
2021/07/08 00:40:10;;;;;;;15.38;13.53;;;;;;;20.06;66.14;97532.91;1816416;78;25839;-82
2021/07/08 00:42:39;;;;;;;15.80;12.98;;;;;;;20.01;66.18;97533.73;1804847;79;25601;-82
2021/07/08 00:45:11;;;;;;;17.32;13.78;;;;;;;19.95;66.28;97538.90;1810000;79;27317;-82
2021/07/08 00:47:39;;;;;;;15.58;13.95;;;;;;;19.83;66.29;97538.84;1812650;79;25579;-82
2021/07/08 00:50:10;;;;;;;14.95;13.35;;;;;;;19.82;66.56;97533.08;1812594;79;25609;-82
2021/07/08 00:52:38;;;;;;;19.42;13.50;;;;;;;19.83;66.62;97534.19;1812756;78;26423;-82
2021/07/08 00:55:09;;;;;;;16.17;13.50;;;;;;;19.84;66.66;97540.49;1812666;78;25582;-82
2021/07/08 00:57:41;;;;;;;14.13;12.65;;;;;;;19.85;66.81;97538.03;1798892;79;27282;-81
2021/07/08 01:00:10;;;;;;;18.42;13.80;;;;;;;19.84;66.83;97533.11;1812503;77;25514;-82
2021/07/08 01:02:40;;;;;;;17.27;13.40;;;;;;;19.84;66.92;97522.69;1812614;77;25152;-82
2021/07/08 01:05:08;;;;;;;16.70;13.35;;;;;;;19.82;67.01;97523.50;1780854;79;26233;-82
2021/07/08 01:07:36;;;;;;;20.55;13.32;;;;;;;19.83;67.07;97519.67;1812655;79;25560;-82
2021/07/08 01:10:05;;;;;;;15.78;13.28;;;;;;;19.82;67.05;97522.13;1812289;79;28096;-82
2021/07/08 01:12:33;;;;;;;15.32;13.68;;;;;;;19.77;67.08;97518.30;1824454;77;25736;-82
2021/07/08 01:15:00;;;;;;;18.48;13.30;;;;;;;19.75;67.05;97516.91;1812469;78;25602;-82
2021/07/08 01:17:28;;;;;;;16.17;13.15;;;;;;;19.72;67.00;97524.28;1812678;77;25707;-82
2021/07/08 01:19:55;;;;;;;15.90;12.82;;;;;;;19.69;67.03;97538.50;1812784;77;25670;-82
2021/07/08 01:22:23;;;;;;;20.45;13.48;;;;;;;19.65;67.05;97529.19;1812757;77;27463;-82
2021/07/08 01:24:51;;;;;;;15.15;12.80;;;;;;;19.55;67.20;97537.36;1812651;77;25561;-82
2021/07/08 01:27:18;;;;;;;16.77;13.48;;;;;;;19.50;67.24;97532.66;1812819;79;25507;-82
2021/07/08 01:29:46;;;;;;;17.70;13.10;;;;;;;19.48;67.45;97533.98;1812879;77;25709;-82
2021/07/08 01:32:14;;;;;;;15.63;13.32;;;;;;;19.47;67.52;97530.42;1813030;79;25602;-82
2021/07/08 01:34:41;;;;;;;14.98;13.38;;;;;;;19.49;67.53;97526.91;1812847;79;28066;-82
2021/07/08 01:37:09;;;;;;;15.10;12.53;;;;;;;19.47;67.49;97541.37;1812399;79;25876;-82
2021/07/08 01:39:37;;;;;;;15.88;13.30;;;;;;;19.49;67.61;97544.70;1813426;78;25216;-82
2021/07/08 01:42:05;;;;;;;16.27;13.00;;;;;;;19.58;67.65;97549.95;1822091;77;26721;-82
2021/07/08 01:44:33;;;;;;;16.95;13.48;;;;;;;19.68;67.66;97558.22;1821929;78;25633;-82
2021/07/08 01:47:00;;;;;;;16.27;13.15;;;;;;;19.77;67.59;97551.71;1807252;78;27030;-82
2021/07/08 01:49:28;;;;;;;17.27;13.32;;;;;;;19.80;67.37;97553.09;1821501;77;25893;-82
2021/07/08 01:51:55;;;;;;;18.25;14.25;;;;;;;19.62;67.27;97553.81;1821789;78;25586;-82
2021/07/08 01:54:23;;;;;;;15.48;12.95;;;;;;;19.51;67.51;97544.44;1828399;77;26465;-82
2021/07/08 01:56:50;;;;;;;17.07;13.10;;;;;;;19.46;67.59;97545.73;1819671;77;25375;-82
2021/07/08 01:59:18;;;;;;;16.15;13.35;;;;;;;19.35;67.61;97553.06;1821995;78;27218;-83
2021/07/08 02:01:45;;;;;;;15.68;13.62;;;;;;;19.25;67.74;97553.00;1835036;77;25601;-82
2021/07/08 02:04:13;;;;;;;17.00;13.30;;;;;;;19.11;67.87;97550.43;1821972;77;25533;-82
2021/07/08 02:06:41;;;;;;;18.67;14.05;;;;;;;19.05;68.20;97547.67;1821983;78;25656;-82
2021/07/08 02:09:08;;;;;;;18.45;13.80;;;;;;;19.02;68.23;97553.66;1822026;78;25684;-82
2021/07/08 02:11:37;;;;;;;19.07;13.05;;;;;;;19.01;68.42;97552.01;1799239;77;28311;-82
2021/07/08 02:14:06;;;;;;;17.52;12.70;;;;;;;19.08;68.52;97559.44;1809923;78;25581;-82
2021/07/08 02:16:35;;;;;;;19.10;13.98;;;;;;;19.11;68.45;97562.74;1821867;78;25573;-82
2021/07/08 02:19:05;;;;;;;15.43;13.53;;;;;;;19.18;68.43;97568.30;1822009;78;25841;-82
2021/07/08 02:21:34;;;;;;;16.15;13.40;;;;;;;19.25;68.36;97577.63;1821692;78;25612;-81
2021/07/08 02:24:01;;;;;;;16.82;12.98;;;;;;;19.22;68.16;97586.36;1821935;77;27406;-82
2021/07/08 02:26:29;;;;;;;18.95;13.38;;;;;;;19.19;68.28;97578.70;1821872;77;25658;-82
2021/07/08 02:28:56;;;;;;;15.75;13.18;;;;;;;19.06;68.19;97578.05;1821963;78;26251;-82
2021/07/08 02:31:24;;;;;;;16.52;13.32;;;;;;;19.03;68.40;97585.95;1817257;78;26670;-82
2021/07/08 02:33:51;;;;;;;18.27;13.22;;;;;;;18.96;68.27;97581.22;1822114;77;25842;-82
2021/07/08 02:36:19;;;;;;;14.45;12.90;;;;;;;18.94;68.44;97582.88;1801236;78;27381;-82
2021/07/08 02:38:47;;;;;;;17.60;13.32;;;;;;;18.86;68.40;97577.03;1826607;77;25553;-82
2021/07/08 02:41:14;;;;;;;16.27;12.45;;;;;;;18.85;68.57;97583.05;1811750;78;25695;-82
2021/07/08 02:43:42;;;;;;;19.50;13.53;;;;;;;18.77;68.51;97583.52;1809144;79;25864;-82
2021/07/08 02:46:10;;;;;;;16.05;13.45;;;;;;;18.67;68.68;97590.27;1812686;79;25267;-82
2021/07/08 02:48:37;;;;;;;15.40;13.50;;;;;;;18.74;68.84;97588.14;1812677;77;27319;-82
2021/07/08 02:51:05;;;;;;;16.02;13.30;;;;;;;18.64;68.70;97584.77;1796902;77;25827;-83
2021/07/08 02:53:33;;;;;;;16.52;14.23;;;;;;;18.68;69.09;97587.82;1812772;77;25629;-83
2021/07/08 02:56:00;;;;;;;17.30;13.05;;;;;;;18.48;68.85;97596.59;1792932;79;26162;-83
2021/07/08 02:58:28;;;;;;;16.77;13.62;;;;;;;18.51;69.26;97596.62;1810936;79;25668;-83
2021/07/08 03:00:55;;;;;;;17.45;14.13;;;;;;;18.54;69.33;97600.22;1808514;77;27296;-83
2021/07/08 03:03:23;;;;;;;18.50;12.73;;;;;;;18.55;69.36;97601.87;1799301;79;25508;-82
2021/07/08 03:05:51;;;;;;;16.85;13.10;;;;;;;18.57;69.46;97607.91;1809611;79;25568;-83
2021/07/08 03:08:18;;;;;;;14.93;12.75;;;;;;;18.60;69.44;97606.86;1812738;78;25812;-82
2021/07/08 03:10:46;;;;;;;15.18;13.13;;;;;;;18.65;69.46;97608.84;1819249;77;25880;-83
2021/07/08 03:13:13;;;;;;;17.05;13.28;;;;;;;18.65;69.46;97603.37;1812683;77;28222;-83
2021/07/08 03:15:41;;;;;;;15.18;13.60;;;;;;;18.66;69.46;97600.92;1812747;79;25621;-83
2021/07/08 03:18:08;;;;;;;16.57;13.95;;;;;;;18.67;69.49;97598.47;1790733;79;25560;-83
2021/07/08 03:20:36;;;;;;;18.12;13.30;;;;;;;18.65;69.51;97606.10;1812816;77;26448;-83
2021/07/08 03:23:05;;;;;;;14.18;11.78;;;;;;;18.65;69.58;97596.53;1797105;77;25633;-83
2021/07/08 03:25:33;;;;;;;19.90;13.18;;;;;;;18.65;69.58;97599.27;1825297;77;28076;-83
2021/07/08 03:28:01;;;;;;;14.15;12.18;;;;;;;18.65;69.60;97602.83;1830291;77;25484;-83
2021/07/08 03:30:30;;;;;;;16.75;13.15;;;;;;;18.67;69.54;97601.20;1812757;79;25547;-83
2021/07/08 03:32:59;;;;;;;19.82;13.68;;;;;;;18.67;69.54;97605.30;1779300;79;25665;-83
2021/07/08 03:35:28;;;;;;;18.95;13.48;;;;;;;18.68;69.59;97605.59;1746884;81;25640;-83
2021/07/08 03:37:56;;;;;;;13.10;11.75;;;;;;;18.70;69.58;97606.99;1815353;77;27292;-83
2021/07/08 03:40:26;;;;;;;14.73;12.70;;;;;;;18.73;69.67;97608.90;1793184;77;25443;-83
2021/07/08 03:42:55;;;;;;;16.97;13.43;;;;;;;18.74;69.65;97607.28;1821438;77;25595;-83
2021/07/08 03:45:23;;;;;;;16.07;12.58;;;;;;;18.73;69.67;97601.52;1799400;77;25688;-83
2021/07/08 03:47:52;;;;;;;16.70;12.88;;;;;;;18.77;69.72;97601.30;1821530;77;25526;-83
2021/07/08 03:50:20;;;;;;;15.60;12.23;;;;;;;18.80;69.69;97604.89;1820878;77;27869;-83
2021/07/08 03:52:48;;;;;;;16.82;13.28;;;;;;;18.83;69.66;97604.38;1807353;78;26163;-82
2021/07/08 03:55:19;;;;;;;16.32;12.70;;;;;;;18.86;69.77;97603.84;1807641;77;26258;-83
2021/07/08 03:57:54;;;;;;;14.55;13.08;;;;;;;18.91;69.76;97609.38;1828378;77;25879;-82
2021/07/08 04:00:35;;;;;;;17.12;12.80;;;;;;;18.89;69.80;97607.43;1821369;77;25631;-83
2021/07/08 04:03:10;;;;;;;15.48;12.95;;;;;;;18.91;69.82;97613.47;1821426;77;27226;-83
2021/07/08 04:05:38;;;;;;;18.75;12.88;;;;;;;18.93;69.86;97614.59;1820749;77;25913;-83
2021/07/08 04:08:07;;;;;;;17.55;13.68;;;;;;;18.94;69.92;97617.06;1801163;78;25540;-83
2021/07/08 04:10:37;;;;;;;19.98;12.63;;;;;;;19.04;69.99;97618.52;1821380;77;25739;-83
2021/07/08 04:13:08;;;;;;;15.30;12.50;;;;;;;19.10;69.77;97620.73;1799512;78;25627;-83
2021/07/08 04:15:37;;;;;;;18.60;13.43;;;;;;;19.12;69.79;97618.58;1816435;78;27440;-83
2021/07/08 04:18:06;;;;;;;15.28;12.93;;;;;;;19.17;69.84;97624.10;1821252;78;25593;-83
2021/07/08 04:20:34;;;;;;;17.45;13.32;;;;;;;19.21;69.86;97627.12;1821347;78;25589;-83
2021/07/08 04:23:04;;;;;;;18.42;13.88;;;;;;;19.24;69.90;97625.23;1821454;77;26187;-83
2021/07/08 04:25:33;;;;;;;19.07;13.88;;;;;;;19.32;69.92;97631.62;1821404;78;25602;-83
2021/07/08 04:28:01;;;;;;;19.27;13.30;;;;;;;19.42;69.98;97641.27;1809356;78;27385;-83
2021/07/08 04:30:29;;;;;;;18.00;14.43;;;;;;;19.56;69.91;97640.31;1816681;77;25943;-83
2021/07/08 04:32:57;;;;;;;21.73;14.78;;;;;;;19.68;69.81;97636.27;1804210;77;25546;-83
2021/07/08 04:35:30;;;;;;;18.73;14.18;;;;;;;19.63;69.69;97637.62;1803139;78;25698;-83
2021/07/08 04:37:56;;;;;;;18.87;13.03;;;;;;;19.67;69.86;97636.55;1752619;79;25883;-83
2021/07/08 04:40:24;;;;;;;15.60;12.30;;;;;;;19.62;69.92;97636.51;1753805;81;27350;-83
2021/07/08 04:42:51;;;;;;;21.62;14.33;;;;;;;19.69;70.03;97642.02;1790297;78;25615;-83
2021/07/08 04:45:20;;;;;;;19.57;11.50;;;;;;;19.73;70.08;97641.78;1759438;80;25807;-83
2021/07/08 04:47:48;;;;;;;18.25;11.60;;;;;;;19.70;70.08;97634.09;1790960;79;26193;-82
2021/07/08 04:50:19;;;;;;;16.82;11.22;;;;;;;19.76;70.24;97644.01;1764938;80;25607;-83
2021/07/08 04:52:49;;;;;;;23.40;11.23;;;;;;;19.81;70.33;97641.82;1777677;80;28283;-82
2021/07/08 04:55:21;;;;;;;15.23;11.65;;;;;;;19.93;70.29;97641.62;1790930;80;25528;-82
2021/07/08 04:57:53;;;;;;;16.07;11.18;;;;;;;20.02;70.28;97642.78;1781296;80;25493;-83
2021/07/08 05:00:22;;;;;;;;;;;;;;;20.13;70.09;97641.20;1793824;80;25763;-82
2021/07/08 05:02:51;;;;;;;15.13;11.80;;;;;;;20.21;70.15;97648.08;1797126;78;25776;-83
2021/07/08 05:05:19;;;;;;;16.00;12.75;;;;;;;20.27;70.00;97644.28;1784858;79;28255;-83
2021/07/08 05:07:48;;;;;;;19.50;12.25;;;;;;;20.31;69.71;97648.11;1799196;78;25637;-82
2021/07/08 05:10:17;;;;;;;17.90;13.75;;;;;;;20.36;69.89;97641.88;1790931;80;25535;-83
2021/07/08 05:12:45;;;;;;;18.67;13.43;;;;;;;20.48;69.84;97641.09;1790994;80;26461;-83
2021/07/08 05:15:15;;;;;;;26.00;13.53;;;;;;;20.56;69.70;97641.11;1790149;79;25717;-83
2021/07/08 05:17:48;;;;;;;19.45;13.68;;;;;;;20.52;69.49;97641.39;1791093;79;27296;-83
2021/07/08 05:20:17;;;;;;;22.75;13.35;;;;;;;20.61;69.76;97649.36;1789591;80;25820;-83
2021/07/08 05:22:47;;;;;;;20.02;13.05;;;;;;;20.70;69.65;97642.25;1791133;79;25548;-82
2021/07/08 05:25:17;;;;;;;18.52;12.18;;;;;;;20.79;69.56;97640.63;1790992;80;25612;-82
2021/07/08 05:27:45;;;;;;;17.27;10.85;;;;;;;20.88;69.47;97643.13;1791033;79;25540;-82
2021/07/08 05:30:13;;;;;;;20.72;11.48;;;;;;;20.93;69.37;97639.01;1790865;79;27392;-83
2021/07/08 05:32:41;;;;;;;18.35;11.08;;;;;;;20.98;69.18;97644.52;1790795;80;25571;-83
2021/07/08 05:35:09;;;;;;;15.50;10.30;;;;;;;20.98;69.10;97637.66;1783381;78;25557;-82
2021/07/08 05:37:37;;;;;;;14.00;10.28;;;;;;;21.09;69.18;97637.94;1762542;79;25713;-82
2021/07/08 05:40:07;;;;;;;15.45;10.55;;;;;;;21.23;69.08;97637.44;1767005;80;25519;-83
2021/07/08 05:42:35;;;;;;;17.32;11.28;;;;;;;21.33;68.83;97631.39;1757768;80;28126;-83
2021/07/08 05:45:04;;;;;;;18.12;10.58;;;;;;;21.30;68.27;97631.94;1766192;81;25612;-83
2021/07/08 05:47:32;;;;;;;16.73;10.30;;;;;;;21.31;68.32;97636.88;1762641;79;25652;-83
2021/07/08 05:49:59;;;;;;;16.32;10.18;;;;;;;21.33;68.45;97631.94;1745557;81;26534;-82
2021/07/08 05:52:28;;;;;;;13.60;9.83;;;;;;;21.37;68.41;97633.05;1755756;81;25612;-83
2021/07/08 05:54:55;;;;;;;10.90;9.50;;;;;;;21.43;68.29;97629.19;1766320;81;27488;-82
2021/07/08 05:57:23;;;;;;;11.00;9.80;;;;;;;21.50;68.33;97631.91;1747992;80;25610;-82
2021/07/08 05:59:51;;;;;;;16.75;10.20;;;;;;;21.58;68.15;97631.92;1752532;79;26241;-83
2021/07/08 06:02:19;;;;;;;15.08;10.10;;;;;;;21.65;68.00;97624.22;1764596;81;25712;-83
2021/07/08 06:04:47;;;;;;;13.35;10.00;;;;;;;21.69;67.92;97629.98;1778188;79;25655;-83
2021/07/08 06:07:14;;;;;;;19.98;10.28;;;;;;;21.73;67.75;97629.17;1771615;79;27390;-82
2021/07/08 06:09:42;;;;;;;16.15;9.83;;;;;;;21.78;67.76;97629.14;1769352;80;26239;-82
2021/07/08 06:12:09;;;;;;;14.78;9.95;;;;;;;21.85;67.46;97628.87;1769372;81;25535;-82
2021/07/08 06:14:37;;;;;;;17.45;10.13;;;;;;;21.90;67.22;97629.66;1769159;80;26484;-82
2021/07/08 06:17:07;;;;;;;13.55;9.15;;;;;;;21.91;67.07;97628.56;1757667;79;25671;-83
2021/07/08 06:19:34;;;;;;;12.90;8.70;;;;;;;21.89;67.09;97622.52;1766150;81;27240;-83
2021/07/08 06:22:01;;;;;;;12.00;8.48;;;;;;;21.93;67.11;97621.42;1769388;80;25586;-83
2021/07/08 06:24:29;;;;;;;13.22;8.63;;;;;;;22.08;67.13;97627.46;1769417;81;25166;-83
2021/07/08 06:26:57;;;;;;;11.33;8.63;;;;;;;22.07;67.01;97623.06;1769505;81;25832;-83
2021/07/08 06:29:24;;;;;;;12.40;8.25;;;;;;;22.10;67.16;97619.73;1769627;79;25533;-82
2021/07/08 06:31:52;;;;;;;14.55;8.43;;;;;;;22.23;67.25;97611.71;1770132;79;27287;-83
2021/07/08 06:34:19;;;;;;;12.78;8.43;;;;;;;22.36;66.85;97610.84;1761953;79;25657;-82
2021/07/08 06:36:47;;;;;;;13.75;8.65;;;;;;;22.43;66.60;97617.70;1768955;81;25653;-82
2021/07/08 06:39:15;;;;;;;14.87;9.03;;;;;;;22.49;66.74;97622.05;1769115;81;26194;-82
2021/07/08 06:41:42;;;;;;;17.02;8.25;;;;;;;22.55;66.58;97613.23;1766802;80;25534;-82
2021/07/08 06:44:10;;;;;;;16.48;9.05;;;;;;;22.62;66.45;97610.43;1798801;79;27749;-83
2021/07/08 06:46:38;;;;;;;12.70;8.43;;;;;;;22.69;66.24;97608.76;1812669;79;25614;-83
2021/07/08 06:49:08;;;;;;;12.05;8.43;;;;;;;22.74;66.19;97607.89;1812887;79;25557;-82
2021/07/08 06:51:35;;;;;;;9.00;7.35;;;;;;;22.82;66.08;97610.88;1827338;77;25689;-83
2021/07/08 06:54:05;;;;;;;14.68;8.33;;;;;;;22.88;66.36;97608.94;1795930;79;25559;-84
2021/07/08 06:56:32;;;;;;;10.82;8.28;;;;;;;23.00;65.87;97606.65;1812956;77;27317;-81
2021/07/08 06:59:00;;;;;;;11.65;6.62;;;;;;;23.00;65.87;97606.65;1812691;78;25526;-82
2021/07/08 07:01:28;;;;;;;11.53;7.22;;;;;;;23.10;65.82;97598.31;1812585;77;25464;-82
2021/07/08 07:03:55;;;;;;;12.07;7.35;;;;;;;23.17;65.52;97601.58;1812756;79;26655;-82
2021/07/08 07:06:23;;;;;;;10.03;7.67;;;;;;;23.13;65.30;97589.48;1812909;79;25602;-83
2021/07/08 07:08:50;;;;;;;15.72;8.58;;;;;;;23.36;65.21;97604.44;1812792;79;27197;-82
2021/07/08 07:11:18;;;;;;;14.18;8.43;;;;;;;23.36;65.21;97604.44;1812630;79;25665;-83
2021/07/08 07:13:46;;;;;;;12.37;8.30;;;;;;;23.47;64.82;97605.98;1812973;78;25599;-83
2021/07/08 07:16:13;;;;;;;12.82;7.37;;;;;;;23.55;64.70;97608.69;1812954;79;25566;-83
2021/07/08 07:18:41;;;;;;;10.78;7.50;;;;;;;23.60;64.45;97611.41;1812785;79;25539;-83
2021/07/08 07:21:11;;;;;;;9.68;6.72;;;;;;;23.55;64.36;97601.80;1812644;79;27173;-83
2021/07/08 07:23:39;;;;;;;12.95;7.05;;;;;;;23.55;64.63;97597.67;1812697;77;25708;-83
2021/07/08 07:26:07;;;;;;;14.23;6.45;;;;;;;23.60;64.77;97597.63;1812780;79;25655;-83
2021/07/08 07:28:36;;;;;;;7.70;6.90;;;;;;;23.70;64.98;97591.46;1797153;77;25824;-83
2021/07/08 07:31:05;;;;;;;11.48;7.17;;;;;;;24.04;64.66;97580.33;1818341;77;25799;-83
2021/07/08 07:33:33;;;;;;;11.75;7.30;;;;;;;24.04;64.66;97580.33;1812805;79;27400;-84
2021/07/08 07:36:01;;;;;;;9.48;7.30;;;;;;;24.15;64.17;97585.16;1812716;79;25233;-83
2021/07/08 07:38:28;;;;;;;14.75;7.35;;;;;;;24.09;64.03;97556.58;1812936;78;25604;-84
2021/07/08 07:40:56;;;;;;;10.48;7.40;;;;;;;24.29;63.88;97579.23;1812551;78;25730;-83
2021/07/08 07:43:24;;;;;;;10.72;7.72;;;;;;;24.35;63.68;97578.62;1812530;78;25601;-83
2021/07/08 07:45:52;;;;;;;15.30;6.95;;;;;;;24.45;63.69;97582.62;1812714;77;27136;-83
2021/07/08 07:48:20;;;;;;;10.23;7.08;;;;;;;24.55;63.71;97571.44;1812526;79;25871;-82
2021/07/08 07:50:47;;;;;;;12.50;8.15;;;;;;;24.67;63.41;97566.30;1813142;77;25577;-83
2021/07/08 07:53:15;;;;;;;11.55;7.45;;;;;;;24.82;63.24;97574.09;1812788;77;25608;-83
2021/07/08 07:55:42;;;;;;;11.53;7.83;;;;;;;24.92;62.83;97569.80;1815211;77;25333;-84
2021/07/08 07:58:10;;;;;;;13.90;7.90;;;;;;;25.04;62.73;97570.19;1817299;77;27215;-83
2021/07/08 08:00:38;;;;;;;10.03;7.45;;;;;;;25.22;63.01;97556.92;1809869;77;25578;-83
2021/07/08 08:03:05;;;;;;;9.80;6.80;;;;;;;25.54;63.11;97561.59;1812777;79;25542;-83
2021/07/08 08:05:36;;;;;;;9.60;7.00;;;;;;;25.88;62.65;97560.44;1812678;79;25715;-83
2021/07/08 08:10:53;;;;;;;10.68;6.62;;;;;;;26.69;61.34;97555.97;1812292;79;45366;-83
2021/07/08 08:13:22;;;;;;;11.65;6.83;;;;;;;27.19;60.62;97556.75;1817403;77;25573;-83
2021/07/08 08:15:51;;;;;;;11.33;6.30;;;;;;;27.45;60.24;97561.08;1812681;77;25539;-82
2021/07/08 08:18:21;;;;;;;8.05;6.03;;;;;;;27.87;59.73;97563.89;1812694;79;25838;-83
2021/07/08 08:20:51;;;;;;;9.13;6.42;;;;;;;28.25;58.91;97557.29;1812671;79;25621;-83
2021/07/08 08:23:19;;;;;;;10.38;6.45;;;;;;;28.55;58.90;97561.10;1812858;79;27352;-83
2021/07/08 08:25:47;;;;;;;10.03;6.45;;;;;;;28.99;58.01;97555.84;1812761;79;25151;-81
2021/07/08 08:28:14;;;;;;;9.55;6.42;;;;;;;29.21;57.69;97557.09;1812661;79;25785;-83
2021/07/08 08:30:44;;;;;;;12.10;5.80;;;;;;;29.51;56.59;97558.04;1812621;79;26385;-83
2021/07/08 08:33:12;;;;;;;10.38;5.95;;;;;;;29.68;56.06;97559.40;1812580;77;25564;-83
2021/07/08 08:35:40;;;;;;;12.73;5.92;;;;;;;29.94;55.66;97558.50;1812640;79;28173;-82
2021/07/08 08:38:07;;;;;;;9.58;5.05;;;;;;;30.19;55.05;97556.18;1812546;79;25996;-83
2021/07/08 08:40:35;;;;;;;8.23;5.55;;;;;;;30.43;54.03;97552.80;1812379;79;25613;-83
2021/07/08 08:43:03;;;;;;;7.17;5.97;;;;;;;30.23;53.69;97554.37;1816096;78;26587;-83
2021/07/08 08:45:31;;;;;;;9.98;5.83;;;;;;;30.38;53.84;97551.02;1821351;78;25631;-84
2021/07/08 08:48:08;;;;;;;8.93;5.10;;;;;;;30.73;53.58;97555.00;1821340;77;27268;-83
2021/07/08 08:50:44;;;;;;;8.43;5.30;;;;;;;31.09;53.18;97544.66;1800807;78;25617;-84
2021/07/08 08:53:13;;;;;;;7.67;5.20;;;;;;;31.40;52.66;97542.80;1820331;77;25380;-84
2021/07/08 08:55:43;;;;;;;9.15;5.47;;;;;;;31.62;52.04;97541.03;1813461;78;25644;-83
2021/07/08 08:58:14;;;;;;;14.13;6.15;;;;;;;31.72;51.86;97539.22;1811173;78;25684;-84
2021/07/08 09:00:45;;;;;;;9.35;5.55;;;;;;;31.94;51.30;97539.95;1768079;78;26879;-83
2021/07/08 09:03:27;;;;;;;;;;;;;;;32.13;51.09;97537.39;1823909;78;26090;-82
2021/07/08 09:06:06;;;;;;;9.65;5.10;;;;;;;32.42;49.34;97527.41;1817515;78;25570;-83
2021/07/08 09:08:36;;;;;;;9.70;4.65;;;;;;;32.69;49.83;97533.44;1821311;78;26468;-84
2021/07/08 09:11:14;;;;;;;11.00;4.80;;;;;;;32.61;49.04;97528.77;1821274;77;25649;-83
2021/07/08 09:13:55;;;;;;;9.28;4.90;;;;;;;32.64;49.40;97526.09;1821723;77;26724;-83
2021/07/08 09:16:34;;;;;;;;;;;;;;;32.74;49.34;97522.84;1822883;78;25721;-83
2021/07/08 09:19:19;;;;;;;8.75;4.50;;;;;;;32.75;47.79;97520.28;1821336;77;25624;-83
2021/07/08 09:21:53;;;;;;;8.45;4.83;;;;;;;33.02;48.60;97522.88;1802026;78;25853;-83
2021/07/08 09:24:31;;;;;;;9.85;5.03;;;;;;;33.38;47.87;97521.95;1821061;78;25671;-84
2021/07/08 09:27:09;;;;;;;9.55;4.70;;;;;;;33.67;47.43;97518.53;1821320;77;28081;-84
2021/07/08 09:29:49;;;;;;;8.65;5.00;;;;;;;33.63;46.70;97511.44;1821180;77;26479;-83
2021/07/08 09:32:22;;;;;;;9.40;4.85;;;;;;;33.66;46.51;97515.51;1821266;77;25525;-83
2021/07/08 09:34:53;;;;;;;9.63;5.17;;;;;;;33.89;46.10;97512.34;1820236;78;25938;-82
2021/07/08 09:37:27;;;;;;;9.33;5.08;;;;;;;34.03;45.79;97510.50;1821380;78;25649;-82
2021/07/08 09:40:01;;;;;;;10.30;4.95;;;;;;;33.95;45.33;97511.70;1820335;77;28252;-82
2021/07/08 09:42:37;;;;;;;10.00;5.00;;;;;;;33.93;45.63;97512.64;1820299;77;25903;-83
2021/07/08 09:45:16;;;;;;;8.78;5.25;;;;;;;34.09;45.15;97502.03;1812815;77;25625;-83
2021/07/08 09:47:47;;;;;;;6.97;4.95;;;;;;;34.25;44.96;97504.24;1809422;79;25740;-82
2021/07/08 09:50:32;;;;;;;7.70;5.33;;;;;;;34.31;44.74;97497.20;1810703;78;25575;-82
2021/07/08 09:53:06;;;;;;;7.85;4.90;;;;;;;34.41;44.51;97491.06;1805423;77;27491;-82
2021/07/08 09:56:08;;;;;;;9.40;5.37;;;;;;;34.57;44.05;97489.01;1794807;79;25539;-83
2021/07/08 09:58:34;;;;;;;11.88;5.53;;;;;;;34.69;43.71;97482.45;1719149;81;25695;-82
2021/07/08 10:01:14;;;;;;;12.25;5.95;;;;;;;34.78;43.49;97479.49;1719984;81;26733;-82
2021/07/08 10:03:48;;;;;;;12.68;5.30;;;;;;;34.74;43.18;97479.38;1720054;81;25676;-82
2021/07/08 10:06:16;;;;;;;9.83;5.50;;;;;;;34.73;43.43;97471.33;1700198;81;27277;-81
2021/07/08 10:08:46;;;;;;;10.10;5.22;;;;;;;34.63;43.27;97472.14;1719032;81;25619;-84
2021/07/08 10:11:16;;;;;;;6.92;5.80;;;;;;;34.80;43.19;97475.70;1719839;81;25711;-84
2021/07/08 10:13:44;;;;;;;11.97;5.28;;;;;;;34.93;42.91;97472.98;1719891;81;25893;-83
2021/07/08 10:16:17;;;;;;;8.83;5.37;;;;;;;35.01;42.86;97469.17;1719946;81;25568;-83
2021/07/08 10:18:49;;;;;;;8.00;5.55;;;;;;;35.08;42.52;97465.09;1719943;81;27238;-81
2021/07/08 10:21:18;;;;;;;12.80;6.50;;;;;;;35.15;42.21;97472.23;1724911;81;25829;-81
2021/07/08 10:23:46;;;;;;;9.28;5.87;;;;;;;35.20;42.45;97467.73;1720043;81;25663;-83
2021/07/08 10:26:14;;;;;;;10.30;5.47;;;;;;;35.30;42.27;97465.75;1719761;81;25996;-82
2021/07/08 10:28:50;;;;;;;8.88;6.03;;;;;;;35.41;42.14;97462.33;1719954;81;25245;-83
2021/07/08 10:31:20;;;;;;;7.97;5.67;;;;;;;35.50;41.89;97457.31;1737053;81;27315;-82
2021/07/08 10:34:10;;;;;;;9.30;5.75;;;;;;;35.61;41.58;97463.93;1807172;77;26234;-81
2021/07/08 10:36:45;;;;;;;9.10;6.12;;;;;;;35.60;41.53;97458.09;1811348;79;25600;-81
2021/07/08 10:39:18;;;;;;;9.08;5.85;;;;;;;35.59;41.20;97458.69;1812852;77;26127;-81
2021/07/08 10:41:57;;;;;;;11.75;6.08;;;;;;;35.49;41.09;97455.10;1812300;78;25558;-81
2021/07/08 10:44:41;;;;;;;6.75;5.33;;;;;;;35.49;41.17;97450.08;1812542;78;27235;-81
2021/07/08 10:47:39;;;;;;;8.55;5.50;;;;;;;35.52;41.11;97445.09;1812768;79;25552;-81
2021/07/08 10:50:40;;;;;;;6.30;5.70;;;;;;;35.63;40.85;97444.09;1812731;79;25622;-81
2021/07/08 10:53:27;;;;;;;14.15;6.03;;;;;;;35.76;40.83;97445.34;1812816;77;26413;-81
2021/07/08 10:56:02;;;;;;;11.05;6.03;;;;;;;35.86;40.44;97444.73;1812808;79;26128;-87
2021/07/08 10:58:51;;;;;;;5.62;5.12;;;;;;;35.77;40.26;97435.14;1812673;77;27224;-82
2021/07/08 11:01:27;;;;;;;10.40;6.30;;;;;;;35.79;40.39;97441.20;1812658;77;26289;-82
2021/07/08 11:04:03;;;;;;;8.23;5.62;;;;;;;35.79;40.18;97436.98;1812503;79;26270;-81
2021/07/08 11:06:40;;;;;;;11.78;5.67;;;;;;;35.77;40.25;97436.55;1812736;79;26452;-82
2021/07/08 11:09:19;;;;;;;6.28;5.62;;;;;;;35.84;40.04;97428.85;1807477;78;25492;-86
2021/07/08 11:11:52;;;;;;;9.08;6.35;;;;;;;35.84;40.43;97435.88;1817712;77;27404;-81
2021/07/08 11:14:27;;;;;;;9.80;6.28;;;;;;;35.89;40.16;97427.92;1801609;79;25701;-83
2021/07/08 11:17:00;;;;;;;8.28;5.60;;;;;;;36.04;40.14;97421.95;1812830;78;25649;-81
2021/07/08 11:19:32;;;;;;;10.82;5.78;;;;;;;35.97;39.64;97424.06;1798066;77;26313;-83
2021/07/08 11:22:06;;;;;;;10.68;5.65;;;;;;;36.00;39.62;97421.07;1812755;78;26224;-83
2021/07/08 11:24:45;;;;;;;12.90;5.90;;;;;;;35.97;39.39;97419.03;1812683;77;27221;-81
2021/07/08 11:27:31;;;;;;;15.32;6.33;;;;;;;35.96;39.79;97414.02;1813269;77;25526;-83
2021/07/08 11:30:03;;;;;;;6.70;5.90;;;;;;;36.00;39.75;97405.62;1801737;77;25508;-82
2021/07/08 11:32:42;;;;;;;11.08;6.25;;;;;;;36.02;39.96;97406.88;1818208;77;26660;-83
2021/07/08 11:35:16;;;;;;;8.63;6.12;;;;;;;36.01;39.97;97402.44;1808693;79;25677;-83
2021/07/08 11:38:02;;;;;;;12.50;6.55;;;;;;;35.77;40.70;97400.05;1812927;77;26865;-82
2021/07/08 11:40:38;;;;;;;10.18;6.25;;;;;;;35.80;40.84;97397.89;1812626;79;26303;-84